createdAt,value
2022-12-09T00:00:35.400Z,36.15
2022-12-09T00:03:02.989Z,31.13
2022-12-09T00:05:30.934Z,28.63
2022-12-09T00:07:58.509Z,28.30
2022-12-09T00:10:25.981Z,29.77
2022-12-09T00:12:55.625Z,25.52
2022-12-09T00:15:23.164Z,30.17
2022-12-09T00:17:50.654Z,24.55
2022-12-09T00:20:18.139Z,24.05
2022-12-09T00:22:45.952Z,23.70
2022-12-09T00:25:13.470Z,23.63
2022-12-09T00:27:40.988Z,22.65
2022-12-09T00:30:09.215Z,22.73
2022-12-09T00:32:37.078Z,23.35
2022-12-09T00:35:06.010Z,25.75
2022-12-09T00:37:35.487Z,25.70
2022-12-09T00:40:03.366Z,25.35
2022-12-09T00:42:30.958Z,28.65
2022-12-09T00:44:58.431Z,26.63
2022-12-09T00:47:25.992Z,28.00
2022-12-09T00:49:53.648Z,26.02
2022-12-09T00:52:21.027Z,25.25
2022-12-09T00:54:48.658Z,23.20
2022-12-09T00:57:16.217Z,23.00
2022-12-09T00:59:43.748Z,23.40
2022-12-09T01:02:11.866Z,22.45
2022-12-09T01:04:39.794Z,23.35
2022-12-09T01:07:07.311Z,26.40
2022-12-09T01:09:35.538Z,28.10
2022-12-09T01:12:03.984Z,26.30
2022-12-09T01:14:31.528Z,30.60
2022-12-09T01:16:59.311Z,30.30
2022-12-09T01:19:26.919Z,27.50
2022-12-09T01:21:55.543Z,26.52
2022-12-09T01:24:23.125Z,27.38
2022-12-09T01:26:50.733Z,26.85
2022-12-09T01:29:19.687Z,31.30
2022-12-09T01:31:48.147Z,34.35
2022-12-09T01:34:15.704Z,30.13
2022-12-09T01:36:43.395Z,31.50
2022-12-09T01:39:11.499Z,34.88
2022-12-09T01:41:38.890Z,32.95
2022-12-09T01:44:10.523Z,33.78
2022-12-09T01:46:38.233Z,34.17
2022-12-09T01:49:06.836Z,33.97
2022-12-09T01:51:34.928Z,31.55
2022-12-09T01:54:02.584Z,32.90
2022-12-09T01:56:31.562Z,35.78
2022-12-09T01:59:01.192Z,35.33
2022-12-09T02:01:29.134Z,34.20
2022-12-09T02:03:57.077Z,38.28
2022-12-09T02:06:24.679Z,33.38
2022-12-09T02:08:52.687Z,32.35
2022-12-09T02:11:35.021Z,31.80
2022-12-09T02:14:21.181Z,28.92
2022-12-09T02:17:11.176Z,33.38
2022-12-09T02:19:38.797Z,30.10
2022-12-09T02:22:08.514Z,28.48
2022-12-09T02:24:42.459Z,30.80
2022-12-09T02:29:54.063Z,26.63
2022-12-09T02:32:46.097Z,25.05
2022-12-09T02:35:35.472Z,27.02
2022-12-09T02:38:17.562Z,26.70
2022-12-09T02:40:59.388Z,24.58
2022-12-09T02:43:29.902Z,28.73
2022-12-09T02:45:59.206Z,27.58
2022-12-09T02:48:41.075Z,26.67
2022-12-09T02:51:10.814Z,29.02
2022-12-09T02:53:40.277Z,27.10
2022-12-09T02:56:09.127Z,25.23
2022-12-09T02:58:36.763Z,30.75
2022-12-09T03:01:05.184Z,27.35
2022-12-09T03:03:34.982Z,31.88
2022-12-09T03:06:08.213Z,31.05
2022-12-09T03:09:02.585Z,30.45
2022-12-09T03:11:31.150Z,29.77
2022-12-09T03:14:05.597Z,29.20
2022-12-09T03:16:52.381Z,26.88
2022-12-09T03:19:22.654Z,28.48
2022-12-09T03:21:52.939Z,29.10
2022-12-09T03:24:23.304Z,28.15
2022-12-09T03:26:52.600Z,29.52
2022-12-09T03:29:22.655Z,28.85
2022-12-09T03:31:51.839Z,34.55
2022-12-09T03:34:22.269Z,32.00
2022-12-09T03:36:51.381Z,31.92
2022-12-09T03:39:21.841Z,34.35
2022-12-09T03:41:52.909Z,34.05
2022-12-09T03:44:23.253Z,36.08
2022-12-09T03:46:50.830Z,31.33
2022-12-09T03:49:18.449Z,28.30
2022-12-09T03:51:49.067Z,29.45
2022-12-09T03:54:16.733Z,35.60
2022-12-09T03:56:46.831Z,30.52
2022-12-09T03:59:16.175Z,37.03
2022-12-09T04:01:45.281Z,32.35
2022-12-09T04:04:14.532Z,34.97
2022-12-09T04:06:42.422Z,35.97
2022-12-09T04:09:11.527Z,42.17
2022-12-09T04:11:39.823Z,36.47
2022-12-09T04:14:11.928Z,33.08
2022-12-09T04:16:42.831Z,34.60
2022-12-09T04:19:10.409Z,33.70
2022-12-09T04:21:37.956Z,31.05
2022-12-09T04:24:05.719Z,26.95
2022-12-09T04:26:34.940Z,28.40
2022-12-09T04:29:03.086Z,31.45
2022-12-09T04:31:30.972Z,31.92
2022-12-09T04:34:01.548Z,30.88
2022-12-09T04:36:31.807Z,30.88
2022-12-09T04:39:00.030Z,28.85
2022-12-09T04:41:28.477Z,30.65
2022-12-09T04:43:56.027Z,29.73
2022-12-09T04:46:23.921Z,29.73
2022-12-09T04:48:51.503Z,34.03
2022-12-09T04:51:18.940Z,39.55
2022-12-09T04:53:46.473Z,32.00
2022-12-09T04:56:15.857Z,31.73
2022-12-09T04:58:44.949Z,34.03
2022-12-09T05:01:18.293Z,35.13
2022-12-09T05:03:53.262Z,38.13
2022-12-09T05:06:21.975Z,31.90
2022-12-09T05:08:49.868Z,30.13
2022-12-09T05:11:18.636Z,35.58
2022-12-09T05:13:46.565Z,32.83
2022-12-09T05:16:16.844Z,31.67
2022-12-09T05:18:45.729Z,29.55
2022-12-09T05:21:15.338Z,32.92
2022-12-09T05:23:43.678Z,32.92
2022-12-09T05:26:13.203Z,26.88
2022-12-09T05:28:41.127Z,29.65
2022-12-09T05:31:11.443Z,28.40
2022-12-09T05:33:39.609Z,26.60
2022-12-09T05:36:11.747Z,27.50
2022-12-09T05:38:39.829Z,26.15
2022-12-09T05:41:07.938Z,27.38
2022-12-09T05:43:37.118Z,24.90
2022-12-09T05:46:06.805Z,19.52
2022-12-09T05:48:35.271Z,19.75
2022-12-09T05:51:04.783Z,18.10
2022-12-09T05:53:32.806Z,20.80
2022-12-09T05:56:00.846Z,24.80
2022-12-09T05:58:28.921Z,25.23
2022-12-09T06:00:58.034Z,23.85
2022-12-09T06:03:25.937Z,21.73
2022-12-09T06:05:54.312Z,25.30
2022-12-09T06:08:21.984Z,23.80
2022-12-09T06:10:50.231Z,29.25
2022-12-09T06:13:17.785Z,25.42
2022-12-09T06:15:45.461Z,29.27
2022-12-09T06:18:13.118Z,31.13
2022-12-09T06:20:41.730Z,31.63
2022-12-09T06:23:09.669Z,32.13
2022-12-09T06:25:37.592Z,32.97
2022-12-09T06:28:05.523Z,28.25
2022-12-09T06:30:33.165Z,34.22
2022-12-09T06:33:01.397Z,37.65
2022-12-09T06:35:29.301Z,36.15
2022-12-09T06:37:56.976Z,35.15
2022-12-09T06:40:24.855Z,33.08
2022-12-09T06:42:52.544Z,32.72
2022-12-09T06:45:21.139Z,32.38
2022-12-09T06:47:49.308Z,29.15
2022-12-09T06:50:17.379Z,31.13
2022-12-09T06:52:45.405Z,30.35
2022-12-09T06:55:13.624Z,30.90
2022-12-09T06:57:41.935Z,31.20
2022-12-09T07:00:10.001Z,32.83
2022-12-09T07:02:38.157Z,33.33
2022-12-09T07:05:06.638Z,37.20
2022-12-09T07:07:35.132Z,31.48
2022-12-09T07:10:04.078Z,32.50
2022-12-09T07:12:32.151Z,35.15
2022-12-09T07:14:59.961Z,39.35
2022-12-09T07:17:27.913Z,35.42
2022-12-09T07:19:56.112Z,43.20
2022-12-09T07:22:25.552Z,45.05
2022-12-09T07:24:52.961Z,40.72
2022-12-09T07:27:20.655Z,39.47
2022-12-09T07:29:48.159Z,42.33
2022-12-09T07:32:15.667Z,41.05
2022-12-09T07:34:43.398Z,43.45
2022-12-09T07:37:11.461Z,44.08
2022-12-09T07:39:38.935Z,39.65
2022-12-09T07:42:06.587Z,41.35
2022-12-09T07:44:46.076Z,48.70
2022-12-09T07:47:14.105Z,45.05
2022-12-09T07:49:41.673Z,46.92
2022-12-09T07:52:09.711Z,38.28
2022-12-09T07:54:37.311Z,33.05
2022-12-09T07:57:05.030Z,33.90
2022-12-09T07:59:32.507Z,30.65
2022-12-09T08:02:05.477Z,30.00
2022-12-09T08:04:36.221Z,25.42
2022-12-09T08:07:04.517Z,27.23
2022-12-09T08:09:32.302Z,24.13
2022-12-09T08:12:00.186Z,23.98
2022-12-09T08:14:27.849Z,29.60
2022-12-09T08:16:55.593Z,26.52
2022-12-09T08:19:23.314Z,23.05
2022-12-09T08:21:54.504Z,23.48
2022-12-09T08:24:22.822Z,25.05
2022-12-09T08:26:51.459Z,24.63
2022-12-09T08:29:20.051Z,22.38
2022-12-09T08:31:48.167Z,19.23
2022-12-09T08:34:16.265Z,17.85
2022-12-09T08:36:44.445Z,17.55
2022-12-09T08:39:13.189Z,20.65
2022-12-09T08:41:41.136Z,17.50
2022-12-09T08:44:13.250Z,18.77
2022-12-09T08:46:43.817Z,22.25
2022-12-09T08:49:12.799Z,20.45
2022-12-09T08:51:41.390Z,24.15
2022-12-09T08:54:09.251Z,23.27
2022-12-09T08:56:37.377Z,26.58
2022-12-09T08:59:05.244Z,22.30
2022-12-09T09:01:35.623Z,25.40
2022-12-09T09:04:07.028Z,24.60
2022-12-09T09:06:36.295Z,23.30
2022-12-09T09:09:04.273Z,21.35
2022-12-09T09:11:32.445Z,24.77
2022-12-09T09:14:00.388Z,22.38
2022-12-09T09:16:28.466Z,24.88
2022-12-09T09:18:56.411Z,28.50
2022-12-09T09:21:26.869Z,26.50
2022-12-09T09:23:54.840Z,27.13
2022-12-09T09:26:23.941Z,29.05
2022-12-09T09:28:51.717Z,35.78
2022-12-09T09:31:21.225Z,33.90
2022-12-09T09:33:49.895Z,33.15
2022-12-09T09:36:22.615Z,35.85
2022-12-09T09:38:50.925Z,35.40
2022-12-09T09:41:38.678Z,31.20
2022-12-09T09:44:10.837Z,32.33
2022-12-09T09:46:40.684Z,35.17
2022-12-09T09:49:13.314Z,35.38
2022-12-09T09:51:41.402Z,31.80
2022-12-09T09:54:11.708Z,27.77
2022-12-09T09:56:59.496Z,25.42
2022-12-09T09:59:44.537Z,26.50
2022-12-09T10:02:12.670Z,36.33
2022-12-09T10:05:10.174Z,27.27
2022-12-09T10:07:42.858Z,27.15
2022-12-09T10:10:21.908Z,23.27
2022-12-09T10:13:08.349Z,22.38
2022-12-09T10:15:45.090Z,23.30
2022-12-09T10:18:29.681Z,23.13
2022-12-09T10:20:57.308Z,28.27
2022-12-09T10:23:26.142Z,26.83
2022-12-09T10:25:59.565Z,24.48
2022-12-09T10:28:30.011Z,30.70
2022-12-09T10:30:58.123Z,23.95
2022-12-09T10:33:30.511Z,24.10
2022-12-09T10:35:59.316Z,23.75
2022-12-09T10:38:28.283Z,21.75
2022-12-09T10:41:11.186Z,23.70
2022-12-09T10:43:42.024Z,23.10
2022-12-09T10:46:20.561Z,20.80
2022-12-09T10:48:50.680Z,24.65
2022-12-09T10:51:29.371Z,18.70
2022-12-09T10:54:06.366Z,21.50
2022-12-09T10:56:37.759Z,23.27
2022-12-09T10:59:11.822Z,26.95
2022-12-09T11:01:49.606Z,25.23
2022-12-09T11:04:22.792Z,28.48
2022-12-09T11:06:55.638Z,23.02
2022-12-09T11:09:31.965Z,22.73
2022-12-09T11:12:00.495Z,26.88
2022-12-09T11:14:34.891Z,25.85
2022-12-09T11:17:12.115Z,25.27
2022-12-09T11:19:40.157Z,28.48
2022-12-09T11:22:16.109Z,24.77
2022-12-09T11:24:44.119Z,24.30
2022-12-09T11:27:31.098Z,23.77
2022-12-09T11:30:16.807Z,28.50
2022-12-09T11:33:01.137Z,26.42
2022-12-09T11:35:41.010Z,31.23
2022-12-09T11:38:23.905Z,30.98
2022-12-09T11:41:02.663Z,30.70
2022-12-09T11:43:41.326Z,28.63
2022-12-09T11:46:15.087Z,29.98
2022-12-09T11:48:44.206Z,35.83
2022-12-09T11:51:22.649Z,30.63
2022-12-09T11:53:52.452Z,29.15
2022-12-09T11:56:25.866Z,33.65
2022-12-09T11:58:53.291Z,35.95
2022-12-09T12:01:33.429Z,33.05
2022-12-09T12:04:02.065Z,35.50
2022-12-09T12:06:41.151Z,36.50
2022-12-09T12:09:28.861Z,36.50
2022-12-09T12:12:20.364Z,41.47
2022-12-09T12:14:47.769Z,37.17
2022-12-09T12:17:21.212Z,39.65
2022-12-09T12:19:51.113Z,35.60
2022-12-09T12:22:37.167Z,37.80
2022-12-09T12:25:12.385Z,34.35
2022-12-09T12:27:54.252Z,36.47
2022-12-09T12:30:23.980Z,38.08
2022-12-09T12:33:40.700Z,43.08
2022-12-09T12:35:51.344Z,45.75
2022-12-09T12:38:37.222Z,47.05
2022-12-09T12:41:04.711Z,42.85
2022-12-09T12:44:02.692Z,44.20
2022-12-09T12:47:02.500Z,43.80
2022-12-09T12:49:42.436Z,40.15
2022-12-09T12:52:54.973Z,41.05
2022-12-09T12:55:17.733Z,38.05
2022-12-09T12:57:51.439Z,39.72
2022-12-09T13:00:24.118Z,41.70
2022-12-09T13:03:09.474Z,41.35
2022-12-09T13:05:38.317Z,42.78
2022-12-09T13:08:08.184Z,40.13
2022-12-09T13:10:39.637Z,40.85
2022-12-09T13:13:11.787Z,41.22
2022-12-09T13:15:47.261Z,35.20
2022-12-09T13:18:32.614Z,36.58
2022-12-09T13:21:01.103Z,39.03
2022-12-09T13:23:43.769Z,41.25
2022-12-09T13:26:26.646Z,39.75
2022-12-09T13:29:23.377Z,34.72
2022-12-09T13:32:07.754Z,43.17
2022-12-09T13:34:38.507Z,42.50
2022-12-09T13:37:06.130Z,38.70
2022-12-09T13:39:42.590Z,41.10
2022-12-09T13:42:56.212Z,39.20
2022-12-09T13:45:34.674Z,42.20
2022-12-09T13:48:27.992Z,43.08
2022-12-09T13:51:00.451Z,49.80
2022-12-09T13:53:33.848Z,41.10
2022-12-09T13:56:03.621Z,39.45
2022-12-09T13:58:30.972Z,45.50
2022-12-09T14:01:05.480Z,48.33
2022-12-09T14:03:38.474Z,49.00
2022-12-09T14:06:19.003Z,52.22
2022-12-09T14:08:48.649Z,48.90
2022-12-09T14:11:34.873Z,48.83
2022-12-09T14:14:25.429Z,50.53
2022-12-09T14:16:55.638Z,57.15
2022-12-09T14:19:28.590Z,55.08
2022-12-09T14:22:17.197Z,47.80
2022-12-09T14:24:51.749Z,50.83
2022-12-09T14:27:23.592Z,42.33
2022-12-09T14:29:54.104Z,41.50
2022-12-09T14:32:23.047Z,53.47
2022-12-09T14:35:01.385Z,52.63
2022-12-09T14:37:49.109Z,51.63
2022-12-09T14:40:16.679Z,71.65
2022-12-09T14:42:50.707Z,58.05
2022-12-09T14:45:21.296Z,60.38
2022-12-09T14:47:48.907Z,71.68
2022-12-09T14:50:21.414Z,53.90
2022-12-09T14:52:53.963Z,63.55
2022-12-09T14:55:23.637Z,61.05
2022-12-09T14:57:51.362Z,56.60
2022-12-09T15:00:45.283Z,61.00
2022-12-09T15:03:44.849Z,62.47
2022-12-09T15:06:13.148Z,57.75
2022-12-09T15:08:41.583Z,112.70
2022-12-09T15:11:17.141Z,94.53
2022-12-09T15:13:46.187Z,115.57
2022-12-09T15:16:14.954Z,104.10
2022-12-09T15:18:43.350Z,147.18
2022-12-09T15:21:11.034Z,115.85
2022-12-09T15:23:44.464Z,94.43
2022-12-09T15:26:23.247Z,65.88
2022-12-09T15:28:51.975Z,75.85
2022-12-09T15:31:20.587Z,74.60
2022-12-09T15:33:54.293Z,75.18
2022-12-09T15:36:26.935Z,52.15
2022-12-09T15:39:00.099Z,49.53
2022-12-09T15:41:52.552Z,44.38
2022-12-09T15:44:21.917Z,52.00
2022-12-09T15:46:51.243Z,59.08
2022-12-09T15:49:22.877Z,62.75
2022-12-09T15:51:53.347Z,75.55
2022-12-09T15:54:23.182Z,73.35
2022-12-09T15:56:50.725Z,78.43
2022-12-09T15:59:20.679Z,82.40
2022-12-09T16:01:52.945Z,59.65
2022-12-09T16:04:22.269Z,48.65
2022-12-09T16:06:50.382Z,64.70
2022-12-09T16:09:19.526Z,77.65
2022-12-09T16:11:48.194Z,68.53
2022-12-09T16:14:16.646Z,75.60
2022-12-09T16:16:44.080Z,55.13
2022-12-09T16:19:25.117Z,48.65
2022-12-09T16:21:57.542Z,51.63
2022-12-09T16:24:30.957Z,74.25
2022-12-09T16:27:07.465Z,53.60
2022-12-09T16:29:36.305Z,61.90
2022-12-09T16:32:19.224Z,89.90
2022-12-09T16:34:47.724Z,57.83
2022-12-09T16:37:23.390Z,53.47
2022-12-09T16:39:50.892Z,52.67
2022-12-09T16:42:22.272Z,64.45
2022-12-09T16:44:49.911Z,61.50
2022-12-09T16:47:24.305Z,59.50
2022-12-09T16:49:51.841Z,49.07
2022-12-09T16:52:24.337Z,71.38
2022-12-09T16:54:52.009Z,55.78
2022-12-09T16:57:20.640Z,49.75
2022-12-09T16:59:48.391Z,56.92
2022-12-09T17:02:35.787Z,60.47
2022-12-09T17:05:03.219Z,59.65
2022-12-09T17:07:30.713Z,67.13
2022-12-09T17:09:58.238Z,58.08
2022-12-09T17:12:25.720Z,58.33
2022-12-09T17:14:53.144Z,61.05
2022-12-09T17:17:20.622Z,59.78
2022-12-09T17:19:48.045Z,48.70
2022-12-09T17:22:15.604Z,55.05
2022-12-09T17:24:43.026Z,54.25
2022-12-09T17:27:10.538Z,57.03
2022-12-09T17:29:38.237Z,60.92
2022-12-09T17:32:06.272Z,49.30
2022-12-09T17:34:33.819Z,58.33
2022-12-09T17:37:01.234Z,63.42
2022-12-09T17:39:28.627Z,54.70
2022-12-09T17:41:56.061Z,53.25
2022-12-09T17:44:23.574Z,66.95
2022-12-09T17:46:51.229Z,66.55
2022-12-09T17:49:19.025Z,67.90
2022-12-09T17:51:46.630Z,78.10
2022-12-09T17:54:14.013Z,71.35
2022-12-09T17:56:41.483Z,109.78
2022-12-09T17:59:11.398Z,64.72
2022-12-09T18:01:40.470Z,74.43
2022-12-09T18:04:11.608Z,79.00
2022-12-09T18:06:40.349Z,73.43
2022-12-09T18:09:08.734Z,98.28
2022-12-09T18:11:36.548Z,59.58
2022-12-09T18:14:04.750Z,46.08
2022-12-09T18:16:32.273Z,66.05
2022-12-09T18:19:06.715Z,55.78
2022-12-09T18:21:34.815Z,61.88
2022-12-09T18:24:02.320Z,58.22
2022-12-09T18:26:32.993Z,58.92
2022-12-09T18:29:03.026Z,71.82
2022-12-09T18:31:30.626Z,111.90
2022-12-09T18:33:58.049Z,72.75
2022-12-09T18:36:26.973Z,76.03
2022-12-09T18:38:54.391Z,47.35
2022-12-09T18:41:23.950Z,51.97
2022-12-09T18:43:52.186Z,54.05
2022-12-09T18:46:46.275Z,60.47
2022-12-09T18:49:13.804Z,46.78
2022-12-09T18:51:42.215Z,61.70
2022-12-09T18:54:09.892Z,54.85
2022-12-09T18:56:37.542Z,54.78
2022-12-09T18:59:07.153Z,54.95
2022-12-09T19:01:39.376Z,49.28
2022-12-09T19:04:08.777Z,47.35
2022-12-09T19:06:37.476Z,51.30
2022-12-09T19:09:06.226Z,49.70
2022-12-09T19:11:35.833Z,52.70
2022-12-09T19:14:04.125Z,45.78
2022-12-09T19:16:31.769Z,53.75
2022-12-09T19:19:03.801Z,64.78
2022-12-09T19:21:34.902Z,52.78
2022-12-09T19:24:02.405Z,53.17
2022-12-09T19:26:31.731Z,54.08
2022-12-09T19:29:01.124Z,50.03
2022-12-09T19:31:33.662Z,51.95
2022-12-09T19:34:02.587Z,49.88
2022-12-09T19:36:30.773Z,50.95
2022-12-09T19:38:58.898Z,49.72
2022-12-09T19:41:26.464Z,79.25
2022-12-09T19:44:00.924Z,52.20
2022-12-09T19:46:28.817Z,59.23
2022-12-09T19:48:56.643Z,56.53
2022-12-09T19:51:24.489Z,55.00
2022-12-09T19:53:55.589Z,46.25
2022-12-09T19:56:23.357Z,46.92
2022-12-09T19:58:52.557Z,42.53
2022-12-09T20:01:20.020Z,44.15
2022-12-09T20:03:48.650Z,44.88
2022-12-09T20:06:16.973Z,42.22
2022-12-09T20:08:44.603Z,41.20
2022-12-09T20:11:16.938Z,45.67
2022-12-09T20:13:44.665Z,51.78
2022-12-09T20:16:13.429Z,52.55
2022-12-09T20:18:41.043Z,51.90
2022-12-09T20:21:10.553Z,53.42
2022-12-09T20:23:39.035Z,53.08
2022-12-09T20:26:07.614Z,45.20
2022-12-09T20:28:35.666Z,40.70
2022-12-09T20:31:04.276Z,43.60
2022-12-09T20:33:31.829Z,51.30
2022-12-09T20:36:05.569Z,47.13
2022-12-09T20:38:35.041Z,53.50
2022-12-09T20:41:06.980Z,49.25
2022-12-09T20:43:40.441Z,43.83
2022-12-09T20:46:15.381Z,41.97
2022-12-09T20:48:43.214Z,52.08
2022-12-09T20:51:12.641Z,54.92
2022-12-09T20:53:41.198Z,41.72
2022-12-09T20:56:09.044Z,45.88
2022-12-09T20:58:37.128Z,48.42
2022-12-09T21:01:24.416Z,46.85
2022-12-09T21:03:52.428Z,43.70
2022-12-09T21:06:20.948Z,43.50
2022-12-09T21:08:48.534Z,38.95
2022-12-09T21:11:20.437Z,37.92
2022-12-09T21:13:49.234Z,39.92
2022-12-09T21:16:21.763Z,33.47
2022-12-09T21:18:50.081Z,35.20
2022-12-09T21:21:18.498Z,33.72
2022-12-09T21:23:46.252Z,39.75
2022-12-09T21:26:15.446Z,33.90
2022-12-09T21:28:43.519Z,37.17
2022-12-09T21:31:21.338Z,34.33
2022-12-09T21:33:49.414Z,30.70
2022-12-09T21:36:18.890Z,32.55
2022-12-09T21:38:46.350Z,31.50
2022-12-09T21:41:15.024Z,28.88
2022-12-09T21:43:42.754Z,33.05
2022-12-09T21:46:18.934Z,30.30
2022-12-09T21:48:52.063Z,28.67
2022-12-09T21:51:20.581Z,38.83
2022-12-09T21:53:48.757Z,31.42
2022-12-09T21:56:20.279Z,26.63
2022-12-09T21:58:48.638Z,29.40
2022-12-09T22:01:16.007Z,28.10
2022-12-09T22:03:43.682Z,27.17
2022-12-09T22:06:11.620Z,26.73
2022-12-09T22:08:39.904Z,28.65
2022-12-09T22:11:10.371Z,28.88
2022-12-09T22:13:41.217Z,26.92
2022-12-09T22:16:09.552Z,30.10
2022-12-09T22:18:37.526Z,30.63
2022-12-09T22:21:24.817Z,29.13
2022-12-09T22:23:54.610Z,27.40
2022-12-09T22:26:22.541Z,26.98
2022-12-09T22:28:50.120Z,27.27
2022-12-09T22:31:17.854Z,31.90
2022-12-09T22:33:45.430Z,29.20
2022-12-09T22:36:13.456Z,30.60
2022-12-09T22:38:41.866Z,28.25
2022-12-09T22:41:11.026Z,29.60
2022-12-09T22:43:38.965Z,30.48
2022-12-09T22:46:10.871Z,30.70
2022-12-09T22:48:38.706Z,29.88
2022-12-09T22:51:13.479Z,29.88
2022-12-09T22:53:41.151Z,34.70
2022-12-09T22:56:09.406Z,37.10
2022-12-09T22:58:36.809Z,42.30
2022-12-09T23:01:09.962Z,32.55
2022-12-09T23:03:37.787Z,35.97
2022-12-09T23:06:05.334Z,34.17
2022-12-09T23:08:32.745Z,56.35
2022-12-09T23:11:04.336Z,80.88
2022-12-09T23:13:35.006Z,41.47
2022-12-09T23:16:07.383Z,35.67
2022-12-09T23:18:35.045Z,34.08
2022-12-09T23:21:03.342Z,34.10
2022-12-09T23:23:31.021Z,36.20
2022-12-09T23:26:05.143Z,34.05
2022-12-09T23:28:42.953Z,43.25
2022-12-09T23:31:11.935Z,55.22
2022-12-09T23:33:39.835Z,37.92
2022-12-09T23:36:08.257Z,38.03
2022-12-09T23:38:35.830Z,41.55
2022-12-09T23:41:03.780Z,34.05
2022-12-09T23:43:31.649Z,39.88
2022-12-09T23:46:02.893Z,34.67
2022-12-09T23:48:30.393Z,55.03
2022-12-09T23:50:58.917Z,42.92
2022-12-09T23:53:26.767Z,34.10
2022-12-09T23:55:54.246Z,33.05
2022-12-09T23:58:21.664Z,31.73
